Time;durP1;ratioP1;P1;durP2;ratioP2;P2;SDS_P1;SDS_P2;PMS_P1;PMS_P2;Temp;Humidity;BMP_temperature;BMP_pressure;BME280_temperature;BME280_humidity;BME280_pressure;Samples;Min_cycle;Max_cycle;Signal;HPM_P1;HPM_P2
2023/12/12 00:02:20;;;;;;;0.00;0.00;;;5.40;99.90;;;;;;5060252;28;20044;-89
2023/12/12 00:04:46;;;;;;;0.00;0.00;;;5.30;99.90;;;;;;5044187;28;20135;-89
2023/12/12 00:07:11;;;;;;;0.15;0.15;;;5.10;99.90;;;;;;5079081;28;20155;-89
2023/12/12 00:09:37;;;;;;;3.08;2.83;;;5.00;99.90;;;;;;5079979;28;20044;-89
2023/12/12 00:12:03;;;;;;;0.40;0.40;;;4.80;99.90;;;;;;5080944;28;20451;-88
2023/12/12 00:14:29;;;;;;;0.10;0.10;;;4.70;99.90;;;;;;5062491;28;20076;-89
2023/12/12 00:16:54;;;;;;;0.00;0.00;;;4.60;99.90;;;;;;5072613;28;20043;-89
2023/12/12 00:19:20;;;;;;;0.00;0.00;;;4.50;99.90;;;;;;5063619;28;20451;-88
2023/12/12 00:21:45;;;;;;;0.00;0.00;;;4.40;99.90;;;;;;5082563;28;20040;-89
2023/12/12 00:24:11;;;;;;;0.03;0.03;;;4.30;99.90;;;;;;5081842;28;20032;-89
2023/12/12 00:26:36;;;;;;;0.50;0.30;;;4.20;99.90;;;;;;5082891;28;20071;-89
2023/12/12 00:29:02;;;;;;;0.00;0.00;;;4.20;99.90;;;;;;5082662;28;20048;-89
2023/12/12 00:31:28;;;;;;;0.35;0.35;;;4.00;99.90;;;;;;5049101;28;20036;-89
2023/12/12 00:33:53;;;;;;;0.10;0.10;;;3.90;99.90;;;;;;5076335;28;20482;-89
2023/12/12 00:36:19;;;;;;;0.00;0.00;;;3.90;99.90;;;;;;5089724;28;20051;-88
2023/12/12 00:38:45;;;;;;;2.15;2.05;;;3.80;99.90;;;;;;5076984;28;20044;-88
2023/12/12 00:41:10;;;;;;;0.00;0.00;;;3.80;99.90;;;;;;5094659;28;20123;-88
2023/12/12 00:43:39;;;;;;;0.00;0.00;;;3.80;99.90;;;;;;5074427;28;20032;-88
2023/12/12 00:46:05;;;;;;;0.32;0.32;;;3.60;99.90;;;;;;5077153;28;20104;-88
2023/12/12 00:48:31;;;;;;;0.25;0.25;;;3.60;99.90;;;;;;5092752;28;20096;-88
2023/12/12 00:50:56;;;;;;;0.00;0.00;;;3.50;99.90;;;;;;5073907;28;20049;-88
2023/12/12 00:53:22;;;;;;;0.00;0.00;;;3.40;99.90;;;;;;5077409;28;20033;-88
2023/12/12 00:55:48;;;;;;;0.00;0.00;;;3.40;99.90;;;;;;5095474;28;20074;-87
2023/12/12 00:58:13;;;;;;;0.00;0.00;;;3.40;99.90;;;;;;5078667;28;20047;-88
2023/12/12 01:00:39;;;;;;;0.05;0.05;;;3.40;99.90;;;;;;5078834;28;20047;-88
2023/12/12 01:03:04;;;;;;;0.00;0.00;;;3.40;99.90;;;;;;5074413;28;20102;-88
2023/12/12 01:05:30;;;;;;;0.00;0.00;;;3.40;99.90;;;;;;5075509;28;20079;-88
2023/12/12 01:07:56;;;;;;;0.00;0.00;;;3.30;99.90;;;;;;5074499;28;20518;-88
2023/12/12 01:10:22;;;;;;;0.22;0.15;;;3.30;99.90;;;;;;5092700;28;20048;-88
2023/12/12 01:12:47;;;;;;;0.00;0.00;;;3.30;99.90;;;;;;5092345;28;20062;-88
2023/12/12 01:15:13;;;;;;;0.00;0.00;;;3.30;99.90;;;;;;5091562;28;20048;-88
2023/12/12 01:17:38;;;;;;;0.13;0.13;;;3.30;99.90;;;;;;5072877;28;20044;-88
2023/12/12 01:20:07;;;;;;;0.28;0.28;;;3.20;99.90;;;;;;5091106;28;20099;-88
2023/12/12 01:22:33;;;;;;;0.00;0.00;;;3.20;99.90;;;;;;5091087;28;20044;-88
2023/12/12 01:24:59;;;;;;;0.00;0.00;;;3.10;99.90;;;;;;5072007;28;20063;-88
2023/12/12 01:27:24;;;;;;;0.00;0.00;;;3.20;99.90;;;;;;5090109;28;20394;-87
2023/12/12 01:29:50;;;;;;;1.90;0.68;;;3.10;99.90;;;;;;5072538;28;20131;-88
2023/12/12 01:32:15;;;;;;;0.00;0.00;;;3.10;99.90;;;;;;5071280;28;20060;-88
2023/12/12 01:34:41;;;;;;;0.65;0.43;;;3.10;99.90;;;;;;5071187;28;20068;-88
2023/12/12 01:37:06;;;;;;;0.80;0.50;;;3.10;99.90;;;;;;5089738;28;20037;-88
2023/12/12 01:39:32;;;;;;;0.00;0.00;;;3.00;99.90;;;;;;5091089;28;20096;-88
2023/12/12 01:41:57;;;;;;;0.00;0.00;;;3.00;99.90;;;;;;5089994;28;20036;-88
2023/12/12 01:44:23;;;;;;;0.57;0.57;;;3.00;99.90;;;;;;5055131;28;20051;-88
2023/12/12 01:46:51;;;;;;;0.00;0.00;;;3.00;99.90;;;;;;5070718;28;20104;-87
2023/12/12 01:49:17;;;;;;;0.43;0.38;;;4.00;99.90;;;;;;5089504;28;20493;-88
2023/12/12 01:51:45;;;;;;;0.20;0.20;;;3.00;99.90;;;;;;5089647;28;20047;-88
2023/12/12 01:54:11;;;;;;;0.17;0.17;;;2.90;99.90;;;;;;5089829;28;20037;-88
2023/12/12 01:56:38;;;;;;;0.00;0.00;;;2.80;99.90;;;;;;5070595;28;20048;-87
2023/12/12 01:59:04;;;;;;;1.00;1.00;;;2.70;99.90;;;;;;5088614;28;20040;-87
2023/12/12 02:01:31;;;;;;;0.00;0.00;;;2.60;99.90;;;;;;5071149;28;20040;-87
2023/12/12 02:03:58;;;;;;;0.00;0.00;;;2.50;99.90;;;;;;5088703;28;20040;-88
2023/12/12 02:06:24;;;;;;;0.00;0.00;;;2.50;99.90;;;;;;5054161;28;20108;-88
2023/12/12 02:08:50;;;;;;;0.00;0.00;;;2.40;99.90;;;;;;5071014;28;20049;-88
2023/12/12 02:11:16;;;;;;;0.10;0.10;;;2.30;99.90;;;;;;5070568;28;20489;-88
2023/12/12 02:13:42;;;;;;;0.00;0.00;;;2.20;99.90;;;;;;5071471;28;20048;-88
2023/12/12 02:16:09;;;;;;;0.10;0.10;;;2.20;99.90;;;;;;5071165;28;20052;-87
2023/12/12 02:18:34;;;;;;;0.00;0.00;;;2.10;99.90;;;;;;5070106;28;20066;-87
2023/12/12 02:21:00;;;;;;;0.30;0.30;;;2.10;99.90;;;;;;5069304;28;20044;-89
2023/12/12 02:23:32;;;;;;;0.00;0.00;;;2.00;99.90;;;;;;5069209;28;20068;-89
2023/12/12 02:25:59;;;;;;;0.00;0.00;;;1.90;99.90;;;;;;5069293;28;20389;-88
2023/12/12 02:28:26;;;;;;;0.00;0.00;;;1.80;99.90;;;;;;5086852;28;20045;-89
2023/12/12 02:30:51;;;;;;;0.00;0.00;;;1.80;99.90;;;;;;5068471;28;20443;-88
2023/12/12 02:33:17;;;;;;;0.00;0.00;;;1.70;99.90;;;;;;5087218;28;20051;-89
2023/12/12 02:35:43;;;;;;;0.43;0.43;;;1.70;99.90;;;;;;5067763;28;20049;-88
2023/12/12 02:38:09;;;;;;;0.00;0.00;;;1.60;99.90;;;;;;5089833;28;20048;-89
2023/12/12 02:40:34;;;;;;;0.00;0.00;;;1.60;99.90;;;;;;5089556;28;20375;-89
2023/12/12 02:43:00;;;;;;;0.32;0.32;;;1.50;99.90;;;;;;5070498;28;20131;-88
2023/12/12 02:45:25;;;;;;;0.17;0.17;;;1.50;99.90;;;;;;5069510;28;20037;-88
2023/12/12 02:47:51;;;;;;;0.00;0.00;;;1.50;99.90;;;;;;5088117;28;20486;-88
2023/12/12 02:50:18;;;;;;;0.17;0.17;;;1.40;99.90;;;;;;5087070;28;20089;-89
2023/12/12 02:52:43;;;;;;;0.00;0.00;;;1.40;99.90;;;;;;5085906;28;20185;-89
2023/12/12 02:55:09;;;;;;;0.00;0.00;;;1.30;99.90;;;;;;5084678;28;20076;-88
2023/12/12 02:57:34;;;;;;;0.00;0.00;;;1.40;99.90;;;;;;5081521;28;20045;-88
2023/12/12 03:00:00;;;;;;;0.00;0.00;;;1.40;99.90;;;;;;5061126;28;20127;-89
2023/12/12 03:02:26;;;;;;;0.00;0.00;;;1.30;99.90;;;;;;5061650;28;20115;-89
2023/12/12 03:04:51;;;;;;;0.00;0.00;;;1.30;99.90;;;;;;5061664;28;20052;-89
2023/12/12 03:07:17;;;;;;;0.38;0.30;;;1.30;99.90;;;;;;5080871;28;20068;-89
2023/12/12 03:09:43;;;;;;;0.35;0.35;;;1.30;99.90;;;;;;5062287;28;20042;-89
2023/12/12 03:12:09;;;;;;;0.38;0.38;;;1.30;99.90;;;;;;5061047;28;20059;-89
2023/12/12 03:14:36;;;;;;;0.00;0.00;;;1.20;99.90;;;;;;5060244;28;20543;-89
2023/12/12 03:17:02;;;;;;;0.20;0.20;;;1.20;99.90;;;;;;5085783;28;20040;-88
2023/12/12 03:19:28;;;;;;;0.03;0.03;;;2.60;99.90;;;;;;5086259;28;20079;-88
2023/12/12 03:21:54;;;;;;;0.00;0.00;;;1.10;99.90;;;;;;5068851;28;20474;-88
2023/12/12 03:24:20;;;;;;;0.00;0.00;;;1.10;99.90;;;;;;5068129;28;20066;-88
2023/12/12 03:26:45;;;;;;;0.00;0.00;;;1.00;99.90;;;;;;5065531;28;20071;-89
2023/12/12 03:29:11;;;;;;;0.00;0.00;;;1.00;99.90;;;;;;5077926;28;20055;-89
2023/12/12 03:31:36;;;;;;;0.00;0.00;;;1.10;99.90;;;;;;5065176;28;20055;-89
2023/12/12 03:34:02;;;;;;;0.00;0.00;;;1.10;99.90;;;;;;5057997;28;20041;-89
2023/12/12 03:36:28;;;;;;;0.57;0.57;;;1.10;99.90;;;;;;5039527;28;20044;-89
2023/12/12 03:38:53;;;;;;;0.00;0.00;;;1.10;99.90;;;;;;5041782;28;20045;-90
2023/12/12 03:41:19;;;;;;;0.00;0.00;;;1.00;99.90;;;;;;5041780;28;20430;-89
2023/12/12 03:43:45;;;;;;;0.05;0.05;;;1.00;99.90;;;;;;5059074;28;20067;-89
2023/12/12 03:46:15;;;;;;;0.00;0.00;;;1.00;99.90;;;;;;5041936;28;20426;-89
2023/12/12 03:48:40;;;;;;;0.00;0.00;;;1.00;99.90;;;;;;5057892;28;20043;-89
2023/12/12 03:51:12;;;;;;;0.00;0.00;;;1.00;99.90;;;;;;5040507;28;20482;-89
2023/12/12 03:53:41;;;;;;;0.00;0.00;;;1.00;99.90;;;;;;5066405;28;20072;-89
2023/12/12 03:56:07;;;;;;;0.00;0.00;;;1.10;99.90;;;;;;5063579;28;20046;-89
2023/12/12 03:58:33;;;;;;;0.00;0.00;;;1.10;99.90;;;;;;5068886;28;20051;-88
2023/12/12 04:00:59;;;;;;;0.00;0.00;;;1.00;99.90;;;;;;5086457;28;20048;-88
2023/12/12 04:03:24;;;;;;;0.10;0.10;;;1.00;99.90;;;;;;5083844;28;20076;-89
2023/12/12 04:05:50;;;;;;;0.57;0.57;;;0.90;99.90;;;;;;5058460;28;20057;-89
2023/12/12 04:08:16;;;;;;;0.00;0.00;;;0.90;99.90;;;;;;5077955;28;20052;-89
2023/12/12 04:10:41;;;;;;;0.00;0.00;;;0.80;99.90;;;;;;5078929;28;20033;-89
2023/12/12 04:13:07;;;;;;;0.00;0.00;;;0.80;99.90;;;;;;5079367;28;20040;-89
2023/12/12 04:15:33;;;;;;;0.00;0.00;;;0.70;99.90;;;;;;5061347;28;20393;-89
2023/12/12 04:17:58;;;;;;;0.10;0.10;;;0.70;99.90;;;;;;5078703;28;20040;-89
2023/12/12 04:20:24;;;;;;;0.00;0.00;;;0.60;99.90;;;;;;5059855;28;20067;-89
2023/12/12 04:22:49;;;;;;;1.20;1.08;;;0.60;99.90;;;;;;5078213;28;20047;-89
2023/12/12 04:25:15;;;;;;;0.00;0.00;;;0.60;99.90;;;;;;5077390;28;20485;-89
2023/12/12 04:27:41;;;;;;;0.00;0.00;;;0.50;99.90;;;;;;5077018;28;20039;-88
2023/12/12 04:30:07;;;;;;;0.00;0.00;;;0.50;99.90;;;;;;5059512;28;20089;-89
2023/12/12 04:32:33;;;;;;;0.08;0.08;;;0.50;99.90;;;;;;5077400;28;20079;-90
2023/12/12 04:35:00;;;;;;;0.00;0.00;;;0.40;99.90;;;;;;5077346;28;20092;-88
2023/12/12 04:37:26;;;;;;;0.80;0.40;;;0.40;99.90;;;;;;5077586;28;20043;-89
2023/12/12 04:39:51;;;;;;;0.00;0.00;;;0.40;99.90;;;;;;5042986;28;20467;-88
2023/12/12 04:42:17;;;;;;;0.00;0.00;;;0.40;99.90;;;;;;5077702;28;20036;-88
2023/12/12 04:44:43;;;;;;;0.00;0.00;;;0.40;99.90;;;;;;5042768;28;20398;-88
2023/12/12 04:47:09;;;;;;;0.00;0.00;;;0.40;99.90;;;;;;5077547;28;20036;-88
2023/12/12 04:49:34;;;;;;;0.10;0.10;;;0.40;99.90;;;;;;5039864;28;20044;-88
2023/12/12 04:52:01;;;;;;;0.00;0.00;;;0.50;99.90;;;;;;5055706;28;20149;-89
2023/12/12 04:54:27;;;;;;;0.00;0.00;;;0.60;99.90;;;;;;5037762;28;20220;-88
2023/12/12 04:56:52;;;;;;;0.00;0.00;;;0.70;99.90;;;;;;5055935;28;20539;-88
2023/12/12 04:59:18;;;;;;;0.10;0.10;;;0.80;99.90;;;;;;5056659;28;20120;-89
2023/12/12 05:01:44;;;;;;;0.73;0.73;;;0.90;99.90;;;;;;5057789;28;20064;-89
2023/12/12 05:04:09;;;;;;;0.00;0.00;;;1.00;99.90;;;;;;5057229;28;20049;-89
2023/12/12 05:06:35;;;;;;;0.05;0.05;;;1.10;99.90;;;;;;5057719;28;20131;-88
2023/12/12 05:09:00;;;;;;;0.00;0.00;;;1.10;99.90;;;;;;5040557;28;20052;-89
2023/12/12 05:11:26;;;;;;;0.08;0.08;;;1.10;99.90;;;;;;5040010;28;20043;-88
2023/12/12 05:13:52;;;;;;;0.10;0.10;;;1.10;99.90;;;;;;5039994;28;20055;-88
2023/12/12 05:16:18;;;;;;;0.00;0.00;;;1.10;99.90;;;;;;5032143;28;20122;-88
2023/12/12 05:18:44;;;;;;;0.00;0.00;;;1.10;99.90;;;;;;5036202;28;20479;-88
2023/12/12 05:21:11;;;;;;;0.00;0.00;;;1.10;99.90;;;;;;5037110;28;20052;-88
2023/12/12 05:23:36;;;;;;;0.00;0.00;;;1.20;99.90;;;;;;5030121;28;20052;-88
2023/12/12 05:26:02;;;;;;;0.00;0.00;;;1.10;99.90;;;;;;5037611;28;20131;-88
2023/12/12 05:28:27;;;;;;;0.00;0.00;;;1.10;99.90;;;;;;5037767;28;20041;-89
2023/12/12 05:30:54;;;;;;;0.00;0.00;;;1.00;99.90;;;;;;5056984;28;20103;-88
2023/12/12 05:33:20;;;;;;;0.00;0.00;;;0.90;99.90;;;;;;5039568;28;20079;-88
2023/12/12 05:35:48;;;;;;;0.10;0.10;;;0.80;99.90;;;;;;5038735;28;20041;-88
2023/12/12 05:38:13;;;;;;;1.05;0.30;;;0.70;99.90;;;;;;5037545;28;20123;-88
2023/12/12 05:40:39;;;;;;;0.00;0.00;;;0.70;99.90;;;;;;5037405;28;20447;-88
2023/12/12 05:43:05;;;;;;;0.13;0.13;;;0.70;99.90;;;;;;5055893;28;20043;-89
2023/12/12 05:45:30;;;;;;;1.50;0.83;;;0.70;99.90;;;;;;5037710;28;20033;-89
2023/12/12 05:47:56;;;;;;;0.00;0.00;;;0.70;99.90;;;;;;5038298;28;20041;-88
2023/12/12 05:50:22;;;;;;;0.00;0.00;;;0.70;99.90;;;;;;5039833;28;20103;-88
2023/12/12 05:52:47;;;;;;;0.43;0.43;;;0.80;99.90;;;;;;5041414;28;20069;-89
2023/12/12 05:55:14;;;;;;;0.10;0.10;;;0.90;99.90;;;;;;5040500;28;20118;-88
2023/12/12 05:57:39;;;;;;;0.00;0.00;;;1.00;99.90;;;;;;5040712;28;20049;-88
2023/12/12 06:00:05;;;;;;;0.10;0.10;;;0.90;99.90;;;;;;5040640;28;20037;-88
2023/12/12 06:02:31;;;;;;;0.00;0.00;;;0.90;99.90;;;;;;5058410;28;20514;-88
2023/12/12 06:04:57;;;;;;;0.93;0.63;;;1.00;99.90;;;;;;5058027;28;20057;-89
2023/12/12 06:07:23;;;;;;;2.38;1.55;;;1.10;99.90;;;;;;5058329;28;20041;-89
2023/12/12 06:09:48;;;;;;;0.20;0.20;;;1.20;99.90;;;;;;5059272;28;20469;-89
2023/12/12 06:12:15;;;;;;;0.20;0.20;;;1.40;99.90;;;;;;5044319;28;20044;-89
2023/12/12 06:14:40;;;;;;;0.88;0.80;;;1.50;99.90;;;;;;5044580;28;20139;-89
2023/12/12 06:17:06;;;;;;;0.00;0.00;;;1.60;99.90;;;;;;5027554;28;20087;-89
2023/12/12 06:19:32;;;;;;;0.00;0.00;;;1.60;99.90;;;;;;5026780;28;20053;-89
2023/12/12 06:21:57;;;;;;;0.35;0.35;;;1.70;99.90;;;;;;5038887;28;20041;-89
2023/12/12 06:24:23;;;;;;;0.77;0.77;;;1.70;99.90;;;;;;5056346;28;20116;-87
2023/12/12 06:26:49;;;;;;;0.00;0.00;;;1.70;99.90;;;;;;5056310;28;20120;-87
2023/12/12 06:29:15;;;;;;;0.55;0.40;;;1.70;99.90;;;;;;5056913;28;20510;-88
2023/12/12 06:31:40;;;;;;;0.08;0.08;;;1.80;99.90;;;;;;5055942;28;20033;-87
2023/12/12 06:34:07;;;;;;;0.00;0.00;;;1.90;99.90;;;;;;5056078;28;20134;-88
2023/12/12 06:36:33;;;;;;;0.22;0.22;;;1.90;99.90;;;;;;5038586;28;20053;-88
2023/12/12 06:38:59;;;;;;;0.10;0.10;;;2.00;99.90;;;;;;5038185;28;20187;-87
2023/12/12 06:41:24;;;;;;;0.43;0.43;;;2.00;99.90;;;;;;5038014;28;20056;-88
2023/12/12 06:43:50;;;;;;;1.67;0.75;;;2.10;99.90;;;;;;5070303;28;20037;-87
2023/12/12 06:46:18;;;;;;;0.00;0.00;;;2.20;99.90;;;;;;5057742;28;20482;-87
2023/12/12 06:48:44;;;;;;;0.00;0.00;;;2.20;99.90;;;;;;5051938;28;20063;-88
2023/12/12 06:51:10;;;;;;;0.10;0.10;;;2.30;99.90;;;;;;5055816;28;20037;-88
2023/12/12 06:53:36;;;;;;;0.00;0.00;;;2.40;99.90;;;;;;5055496;28;20052;-88
2023/12/12 06:56:02;;;;;;;0.00;0.00;;;2.40;99.90;;;;;;5020991;28;20478;-88
2023/12/12 06:58:28;;;;;;;0.00;0.00;;;2.50;99.90;;;;;;5036233;28;20490;-87
2023/12/12 07:00:54;;;;;;;1.00;0.50;;;2.50;99.90;;;;;;5036488;28;20044;-88
2023/12/12 07:03:21;;;;;;;0.00;0.00;;;3.50;99.90;;;;;;5036232;28;20045;-87
2023/12/12 07:05:53;;;;;;;0.00;0.00;;;2.60;99.90;;;;;;5035672;28;20068;-88
2023/12/12 07:08:19;;;;;;;0.00;0.00;;;2.70;99.90;;;;;;5036023;28;20045;-87
2023/12/12 07:10:46;;;;;;;0.22;0.22;;;2.60;99.90;;;;;;5035916;28;20465;-88
2023/12/12 07:13:12;;;;;;;0.15;0.15;;;2.70;99.90;;;;;;5019521;28;20136;-89
2023/12/12 07:15:38;;;;;;;0.00;0.00;;;2.80;99.90;;;;;;5019626;28;20116;-89
2023/12/12 07:18:10;;;;;;;0.00;0.00;;;2.90;99.90;;;;;;5053660;28;20116;-88
2023/12/12 07:20:36;;;;;;;0.38;0.38;;;2.90;99.90;;;;;;5053946;28;20095;-88
2023/12/12 07:23:03;;;;;;;0.22;0.22;;;3.00;99.90;;;;;;5052258;28;20048;-88
2023/12/12 07:25:29;;;;;;;0.30;0.30;;;3.10;99.90;;;;;;5053684;28;20045;-89
2023/12/12 07:27:56;;;;;;;0.10;0.10;;;3.10;99.90;;;;;;5035507;28;20425;-89
2023/12/12 07:30:21;;;;;;;0.38;0.38;;;3.30;99.90;;;;;;5053763;28;20128;-88
2023/12/12 07:32:47;;;;;;;0.50;0.50;;;3.30;99.90;;;;;;5036165;28;20128;-88
2023/12/12 07:35:13;;;;;;;0.80;0.80;;;3.40;99.90;;;;;;5053869;28;20058;-89
2023/12/12 07:37:38;;;;;;;0.30;0.30;;;3.50;99.90;;;;;;5020168;28;20056;-88
2023/12/12 07:40:05;;;;;;;0.20;0.20;;;3.50;99.90;;;;;;5036368;28;20041;-88
2023/12/12 07:42:31;;;;;;;0.40;0.40;;;3.50;99.90;;;;;;5018967;28;20045;-88
2023/12/12 07:44:57;;;;;;;0.32;0.32;;;3.60;99.90;;;;;;5035884;28;20048;-88
2023/12/12 07:47:23;;;;;;;0.35;0.35;;;3.60;99.90;;;;;;5019542;28;20127;-88
2023/12/12 07:49:48;;;;;;;0.88;0.88;;;3.70;99.90;;;;;;5053668;28;20132;-88
2023/12/12 07:52:14;;;;;;;0.73;0.55;;;3.80;99.90;;;;;;5017772;28;20041;-88
2023/12/12 07:54:41;;;;;;;0.73;0.57;;;3.80;99.90;;;;;;5019339;28;20132;-88
2023/12/12 07:57:06;;;;;;;1.25;0.93;;;3.90;99.90;;;;;;5053272;28;20033;-88
2023/12/12 07:59:32;;;;;;;1.30;1.20;;;3.90;99.90;;;;;;5052944;28;20402;-88
2023/12/12 08:01:59;;;;;;;0.60;0.60;;;4.00;99.90;;;;;;5053766;28;20090;-88
2023/12/12 08:04:25;;;;;;;0.20;0.20;;;4.00;99.90;;;;;;5035240;28;20057;-88
2023/12/12 08:06:50;;;;;;;0.22;0.22;;;4.00;99.90;;;;;;5019786;28;20128;-88
2023/12/12 08:09:16;;;;;;;0.00;0.00;;;4.10;99.90;;;;;;5053434;28;20052;-88
2023/12/12 08:11:41;;;;;;;0.65;0.65;;;4.10;99.90;;;;;;5035314;28;20107;-88
2023/12/12 08:14:07;;;;;;;0.05;0.05;;;4.10;99.90;;;;;;5053122;28;20033;-88
2023/12/12 08:16:33;;;;;;;0.35;0.35;;;4.20;99.90;;;;;;5018671;28;20041;-89
2023/12/12 08:18:58;;;;;;;0.30;0.30;;;4.20;99.90;;;;;;5018502;28;20052;-88
2023/12/12 08:21:24;;;;;;;0.85;0.85;;;4.20;99.90;;;;;;5052830;28;20411;-88
2023/12/12 08:23:50;;;;;;;0.50;0.47;;;4.20;99.90;;;;;;5054133;28;20041;-88
2023/12/12 08:26:15;;;;;;;0.32;0.32;;;4.30;99.90;;;;;;5035092;28;20041;-88
2023/12/12 08:28:41;;;;;;;0.10;0.10;;;4.30;99.90;;;;;;5054005;28;20045;-88
2023/12/12 08:31:06;;;;;;;0.20;0.20;;;4.40;99.90;;;;;;5036256;28;20130;-88
2023/12/12 08:33:35;;;;;;;0.30;0.30;;;4.40;99.90;;;;;;5053845;28;20051;-88
2023/12/12 08:36:01;;;;;;;0.52;0.52;;;4.40;99.90;;;;;;5054100;28;20187;-88
2023/12/12 08:38:26;;;;;;;2.08;1.00;;;4.50;99.90;;;;;;5053961;28;20124;-88
2023/12/12 08:40:52;;;;;;;0.32;0.32;;;4.60;99.90;;;;;;5053627;28;20037;-89
2023/12/12 08:43:18;;;;;;;1.85;1.42;;;4.60;99.90;;;;;;5035807;28;20102;-88
2023/12/12 08:45:44;;;;;;;1.65;0.95;;;4.80;99.90;;;;;;5053813;28;20432;-88
2023/12/12 08:48:10;;;;;;;1.35;1.00;;;4.80;99.90;;;;;;5053626;28;20114;-88
2023/12/12 08:50:35;;;;;;;0.05;0.05;;;5.00;99.90;;;;;;5053667;28;20483;-88
2023/12/12 08:53:03;;;;;;;0.55;0.55;;;5.00;99.90;;;;;;5019093;28;20430;-89
2023/12/12 08:55:29;;;;;;;0.80;0.80;;;5.10;99.90;;;;;;5019596;28;20114;-88
2023/12/12 08:57:54;;;;;;;0.57;0.57;;;5.10;99.90;;;;;;5035715;28;20491;-88
2023/12/12 09:00:20;;;;;;;0.47;0.47;;;5.10;99.90;;;;;;5035276;28;20049;-89
2023/12/12 09:02:45;;;;;;;0.90;0.82;;;5.10;99.90;;;;;;5035547;28;20415;-89
2023/12/12 09:05:11;;;;;;;0.10;0.10;;;5.20;99.90;;;;;;5035261;28;20406;-89
2023/12/12 09:07:37;;;;;;;0.63;0.63;;;5.20;99.90;;;;;;5035701;28;20099;-88
2023/12/12 09:10:03;;;;;;;0.90;0.80;;;5.20;99.90;;;;;;5053317;28;20050;-88
2023/12/12 09:12:29;;;;;;;0.32;0.32;;;5.30;99.90;;;;;;5053168;28;20403;-88
2023/12/12 09:14:55;;;;;;;0.65;0.40;;;5.30;99.90;;;;;;5053081;28;20041;-88
2023/12/12 09:17:20;;;;;;;1.30;0.95;;;5.40;99.90;;;;;;5035242;28;20103;-88
2023/12/12 09:19:46;;;;;;;0.35;0.20;;;5.40;99.90;;;;;;5053150;28;20049;-88
2023/12/12 09:22:11;;;;;;;0.52;0.52;;;5.50;99.90;;;;;;5035263;28;20119;-88
2023/12/12 09:24:37;;;;;;;0.70;0.70;;;6.50;99.90;;;;;;5035665;28;20068;-88
2023/12/12 09:27:03;;;;;;;0.08;0.08;;;5.50;99.90;;;;;;5035258;28;20041;-88
2023/12/12 09:29:29;;;;;;;1.65;1.55;;;5.50;99.90;;;;;;5052858;28;20045;-88
2023/12/12 09:31:56;;;;;;;0.17;0.17;;;5.50;99.90;;;;;;5035372;28;20045;-88
2023/12/12 09:34:23;;;;;;;1.58;1.48;;;5.50;99.90;;;;;;5052788;28;20049;-88
2023/12/12 09:36:52;;;;;;;3.28;2.42;;;5.50;99.90;;;;;;5053253;28;20133;-88
2023/12/12 09:39:18;;;;;;;2.83;1.00;;;5.50;99.90;;;;;;5018395;28;20045;-88
2023/12/12 09:41:47;;;;;;;0.85;0.75;;;5.50;99.90;;;;;;5035022;28;20556;-88
2023/12/12 09:44:16;;;;;;;1.27;0.68;;;5.50;99.90;;;;;;5053204;28;20106;-88
2023/12/12 09:46:43;;;;;;;1.10;0.93;;;5.50;99.90;;;;;;5038696;28;20042;-89
2023/12/12 09:49:11;;;;;;;1.80;1.25;;;5.50;99.90;;;;;;5039080;28;20055;-88
2023/12/12 09:51:39;;;;;;;1.33;1.23;;;5.50;99.90;;;;;;5038954;28;20045;-88
2023/12/12 09:54:07;;;;;;;0.30;0.30;;;5.60;99.90;;;;;;5039353;28;20449;-89
2023/12/12 09:56:35;;;;;;;1.27;1.20;;;5.50;99.90;;;;;;5038849;28;20502;-89
2023/12/12 09:59:01;;;;;;;0.40;0.40;;;5.50;99.90;;;;;;5038755;28;20487;-88
2023/12/12 10:01:26;;;;;;;1.60;1.50;;;6.10;99.90;;;;;;5038950;28;20140;-88
2023/12/12 10:03:54;;;;;;;1.08;1.02;;;5.60;99.90;;;;;;5039161;28;20052;-88
2023/12/12 10:06:24;;;;;;;1.15;1.05;;;5.70;99.90;;;;;;5040977;28;20146;-88
2023/12/12 10:08:49;;;;;;;0.10;0.10;;;5.60;99.90;;;;;;5024670;28;20049;-88
2023/12/12 10:11:15;;;;;;;2.28;0.65;;;5.60;99.90;;;;;;5056934;28;20436;-88
2023/12/12 10:13:58;;;;;;;1.13;0.88;;;5.60;99.90;;;;;;5056755;28;20449;-88
2023/12/12 10:16:27;;;;;;;3.35;1.48;;;5.60;99.90;;;;;;5038687;28;20041;-88
2023/12/12 10:18:54;;;;;;;0.30;0.30;;;5.60;99.90;;;;;;5056570;28;20051;-89
2023/12/12 10:21:21;;;;;;;2.05;0.93;;;5.60;99.90;;;;;;5038330;28;20120;-88
2023/12/12 10:23:50;;;;;;;1.05;0.88;;;6.00;99.90;;;;;;5038665;28;20045;-88
2023/12/12 10:26:25;;;;;;;1.95;1.20;;;5.60;99.90;;;;;;5038679;28;20075;-89
2023/12/12 10:28:54;;;;;;;1.05;0.98;;;5.60;99.90;;;;;;5038283;28;20045;-88
2023/12/12 10:31:20;;;;;;;1.73;1.60;;;5.50;99.90;;;;;;5038489;28;20044;-89
2023/12/12 10:33:47;;;;;;;0.63;0.63;;;5.50;99.90;;;;;;5038415;28;20487;-89
2023/12/12 10:36:12;;;;;;;0.63;0.63;;;5.50;99.90;;;;;;5038344;28;20044;-89
2023/12/12 10:38:41;;;;;;;0.65;0.57;;;5.40;99.90;;;;;;5038350;28;20506;-89
2023/12/12 10:41:11;;;;;;;1.95;1.75;;;5.40;99.90;;;;;;5037916;28;20048;-88
2023/12/12 10:43:42;;;;;;;3.45;1.33;;;5.50;99.90;;;;;;5038156;28;20071;-89
2023/12/12 10:46:19;;;;;;;2.60;1.00;;;5.50;99.90;;;;;;5055712;28;20045;-88
2023/12/12 10:48:49;;;;;;;1.63;1.52;;;5.50;99.90;;;;;;5037646;28;20077;-88
2023/12/12 10:51:17;;;;;;;4.30;2.08;;;5.60;99.90;;;;;;5037583;28;20545;-88
2023/12/12 10:53:45;;;;;;;7.63;1.98;;;5.50;99.90;;;;;;5055662;28;20107;-88
2023/12/12 10:56:12;;;;;;;0.52;0.52;;;5.60;99.90;;;;;;5054636;28;20064;-88
2023/12/12 10:58:39;;;;;;;0.77;0.35;;;5.60;99.90;;;;;;5055091;28;20041;-88
2023/12/12 11:01:15;;;;;;;2.92;1.88;;;5.70;99.90;;;;;;5055621;28;20044;-88
2023/12/12 11:03:40;;;;;;;0.93;0.90;;;5.70;99.90;;;;;;5055586;28;20040;-88
2023/12/12 11:06:07;;;;;;;2.75;1.23;;;5.80;99.90;;;;;;5037353;28;20460;-88
2023/12/12 11:08:33;;;;;;;0.77;0.77;;;5.70;99.90;;;;;;5037510;28;20041;-88
2023/12/12 11:11:09;;;;;;;2.67;2.42;;;5.80;99.90;;;;;;5036038;28;20090;-88
2023/12/12 11:13:39;;;;;;;1.48;1.38;;;5.80;99.90;;;;;;5036025;28;20514;-88
2023/12/12 11:16:06;;;;;;;3.08;1.92;;;5.90;99.90;;;;;;5019732;28;20049;-89
2023/12/12 11:18:36;;;;;;;0.65;0.65;;;5.90;99.90;;;;;;5035850;28;20095;-88
2023/12/12 11:21:01;;;;;;;1.95;1.83;;;6.00;99.90;;;;;;5054321;28;20051;-89
2023/12/12 11:23:46;;;;;;;0.47;0.47;;;6.00;99.90;;;;;;5036514;28;20112;-89
2023/12/12 11:26:15;;;;;;;2.08;1.13;;;6.00;99.90;;;;;;5036316;28;20123;-89
2023/12/12 11:28:42;;;;;;;1.23;1.13;;;7.30;99.90;;;;;;5035837;28;20036;-89
2023/12/12 11:31:08;;;;;;;2.38;1.38;;;5.90;99.90;;;;;;5036497;28;20045;-89
2023/12/12 11:34:00;;;;;;;1.20;1.13;;;6.00;99.90;;;;;;5054706;28;20095;-89
2023/12/12 11:36:26;;;;;;;1.25;1.15;;;5.90;99.90;;;;;;5019316;28;20056;-89
2023/12/12 11:38:54;;;;;;;3.00;2.15;;;5.90;99.90;;;;;;5053506;28;20090;-89
2023/12/12 11:41:20;;;;;;;2.72;2.45;;;6.00;99.90;;;;;;5035499;28;20457;-88
2023/12/12 11:43:46;;;;;;;1.95;1.27;;;6.10;99.90;;;;;;5036740;28;20120;-89
2023/12/12 11:46:21;;;;;;;2.53;2.30;;;7.00;99.90;;;;;;5019882;28;20494;-89
2023/12/12 11:48:47;;;;;;;1.83;1.48;;;6.00;99.90;;;;;;5054682;28;20049;-89
2023/12/12 11:51:35;;;;;;;17.50;2.05;;;6.00;99.90;;;;;;5054190;28;20064;-89
2023/12/12 11:54:08;;;;;;;8.27;3.20;;;6.10;99.90;;;;;;5020162;28;20056;-89
2023/12/12 11:56:34;;;;;;;2.45;2.13;;;6.00;99.90;;;;;;5020459;28;20037;-89
2023/12/12 11:59:00;;;;;;;3.65;0.98;;;6.10;99.90;;;;;;5036824;28;20182;-89
2023/12/12 12:01:26;;;;;;;4.60;1.38;;;6.00;99.90;;;;;;5036574;28;20059;-89
2023/12/12 12:03:52;;;;;;;2.15;1.73;;;6.00;99.90;;;;;;5036814;28;20128;-89
2023/12/12 12:06:18;;;;;;;2.42;2.10;;;6.10;99.90;;;;;;5036522;28;20127;-89
2023/12/12 12:08:44;;;;;;;5.07;1.52;;;6.10;99.90;;;;;;5019494;28;20188;-89
2023/12/12 12:11:11;;;;;;;1.27;1.17;;;6.10;99.90;;;;;;5036570;28;20380;-89
2023/12/12 12:13:43;;;;;;;3.20;1.80;;;6.10;99.90;;;;;;5036431;28;20045;-89
2023/12/12 12:16:10;;;;;;;2.13;1.98;;;6.10;99.90;;;;;;5054312;28;20449;-89
2023/12/12 12:18:36;;;;;;;1.27;1.17;;;6.10;99.90;;;;;;5036705;28;20052;-89
2023/12/12 12:21:03;;;;;;;7.57;2.45;;;6.00;99.90;;;;;;5036521;28;20395;-89
2023/12/12 12:23:30;;;;;;;7.20;2.60;;;5.90;99.90;;;;;;5054481;28;20072;-89
2023/12/12 12:26:02;;;;;;;1.55;1.40;;;6.00;99.90;;;;;;5054404;28;20053;-89
2023/12/12 12:28:32;;;;;;;3.03;2.03;;;5.90;99.90;;;;;;5036518;28;20402;-89
2023/12/12 12:31:00;;;;;;;2.30;1.10;;;5.90;99.90;;;;;;5020155;28;20426;-89
2023/12/12 12:33:33;;;;;;;1.98;1.67;;;6.00;99.90;;;;;;5038615;28;20505;-89
2023/12/12 12:35:59;;;;;;;4.30;2.45;;;6.00;99.90;;;;;;5035906;28;20045;-89
2023/12/12 12:38:26;;;;;;;0.80;0.80;;;6.00;99.90;;;;;;5053900;28;20067;-89
2023/12/12 12:40:53;;;;;;;2.20;1.77;;;6.00;99.90;;;;;;5034802;28;20132;-88
2023/12/12 12:43:19;;;;;;;0.50;0.50;;;6.00;99.90;;;;;;5034727;28;20399;-88
2023/12/12 12:45:45;;;;;;;8.85;1.75;;;7.20;99.90;;;;;;5034556;28;20049;-88
2023/12/12 12:48:11;;;;;;;3.88;0.95;;;6.00;99.90;;;;;;5034014;28;20045;-88
2023/12/12 12:50:41;;;;;;;1.35;1.15;;;6.00;99.90;;;;;;5034435;28;20049;-88
2023/12/12 12:53:07;;;;;;;0.80;0.80;;;6.10;99.90;;;;;;5013568;28;20045;-88
2023/12/12 12:55:33;;;;;;;2.13;1.92;;;6.00;99.90;;;;;;5033835;28;20060;-88